Time;durP1;ratioP1;P1;durP2;ratioP2;P2;SDS_P1;SDS_P2;PMS_P1;PMS_P2;Temp;Humidity;BMP_temperature;BMP_pressure;BME280_temperature;BME280_humidity;BME280_pressure;Samples;Min_cycle;Max_cycle;Signal;HPM_P1;HPM_P2
2022/04/30 00:00:42;;;;;;;7.28;5.07;;;15.00;66.30;;;;;;5014675;28;20068;-61
2022/04/30 00:03:09;;;;;;;9.80;5.60;;;14.90;66.20;;;;;;5015220;28;20034;-61
2022/04/30 00:05:35;;;;;;;7.10;5.45;;;14.90;66.20;;;;;;5014877;28;20057;-61
2022/04/30 00:08:05;;;;;;;6.05;4.68;;;14.80;66.30;;;;;;5015083;28;20101;-56
2022/04/30 00:10:37;;;;;;;8.18;4.72;;;14.80;66.20;;;;;;5014776;28;20032;-61
2022/04/30 00:13:07;;;;;;;7.10;4.68;;;14.80;66.00;;;;;;5015051;28;20384;-60
2022/04/30 00:15:34;;;;;;;8.68;4.80;;;14.80;66.00;;;;;;5014858;28;20026;-56
2022/04/30 00:18:00;;;;;;;6.85;4.57;;;14.80;65.80;;;;;;5014695;28;20025;-63
2022/04/30 00:20:25;;;;;;;6.03;5.00;;;14.70;65.80;;;;;;5014815;28;20069;-59
2022/04/30 00:22:51;;;;;;;5.72;4.70;;;14.70;65.80;;;;;;5014762;28;20064;-56
2022/04/30 00:25:32;;;;;;;6.00;3.97;;;14.70;65.70;;;;;;5014148;28;20033;-55
2022/04/30 00:27:57;;;;;;;5.78;4.30;;;14.70;65.60;;;;;;5014351;28;20116;-62
2022/04/30 00:30:23;;;;;;;8.73;4.97;;;14.70;65.40;;;;;;5014559;28;20104;-62
2022/04/30 00:32:49;;;;;;;5.55;4.60;;;14.70;65.50;;;;;;5013352;28;20025;-63
2022/04/30 00:35:15;;;;;;;6.60;4.13;;;14.60;65.50;;;;;;5014500;28;20034;-60
2022/04/30 00:37:41;;;;;;;5.22;4.30;;;14.60;65.80;;;;;;5014574;28;20430;-62
2022/04/30 00:40:07;;;;;;;8.55;4.80;;;14.50;65.70;;;;;;5014224;28;20029;-57
2022/04/30 00:42:33;;;;;;;6.65;4.63;;;14.50;65.80;;;;;;5007011;28;20480;-60
2022/04/30 00:45:01;;;;;;;6.15;4.97;;;14.50;65.80;;;;;;5001544;28;20038;-62
2022/04/30 00:47:26;;;;;;;7.18;4.22;;;14.50;65.90;;;;;;4994305;28;20018;-61
2022/04/30 00:49:53;;;;;;;5.95;4.20;;;14.50;65.90;;;;;;4994592;28;20080;-62
2022/04/30 00:52:21;;;;;;;7.15;4.70;;;14.50;65.90;;;;;;4994383;28;20022;-63
2022/04/30 00:54:49;;;;;;;6.45;4.68;;;14.50;66.10;;;;;;4994139;28;20049;-62
2022/04/30 00:57:19;;;;;;;8.77;4.60;;;14.50;66.00;;;;;;4994120;28;20439;-58
2022/04/30 00:59:45;;;;;;;5.18;4.35;;;14.50;66.20;;;;;;4994057;28;20476;-63
2022/04/30 01:02:11;;;;;;;6.65;5.03;;;14.40;66.40;;;;;;4994281;28;20023;-63
2022/04/30 01:04:37;;;;;;;7.15;4.47;;;14.40;66.80;;;;;;4994298;28;20030;-56
2022/04/30 01:07:05;;;;;;;6.38;4.82;;;14.40;66.70;;;;;;4994444;28;20029;-63
2022/04/30 01:09:33;;;;;;;7.60;4.60;;;14.40;66.80;;;;;;4994035;28;20068;-58
2022/04/30 01:12:10;;;;;;;8.65;4.68;;;14.30;66.90;;;;;;4994163;28;20546;-63
2022/04/30 01:14:40;;;;;;;7.38;5.00;;;14.30;67.30;;;;;;4994456;28;20037;-56
2022/04/30 01:17:10;;;;;;;10.88;5.15;;;14.30;67.20;;;;;;4994099;28;20022;-56
2022/04/30 01:19:42;;;;;;;8.68;5.03;;;14.30;67.30;;;;;;4994244;28;20483;-62
2022/04/30 01:22:14;;;;;;;5.90;4.28;;;14.20;67.40;;;;;;4994062;28;20030;-59
2022/04/30 01:24:40;;;;;;;7.45;4.68;;;14.20;67.50;;;;;;4994036;28;20464;-53
2022/04/30 01:27:09;;;;;;;8.70;4.53;;;14.20;67.70;;;;;;4993795;28;20037;-60
2022/04/30 01:29:37;;;;;;;5.70;4.80;;;14.20;67.80;;;;;;4992815;28;20093;-59
2022/04/30 01:37:36;;;;;;;6.38;4.88;;;14.10;68.20;;;;;;4993019;28;20049;-63
2022/04/30 01:40:06;;;;;;;9.02;4.90;;;14.10;68.10;;;;;;4994027;28;20018;-58
2022/04/30 01:42:38;;;;;;;6.07;3.83;;;14.10;68.30;;;;;;4993721;28;20027;-61
2022/04/30 01:45:05;;;;;;;6.90;4.10;;;14.10;68.70;;;;;;4993844;28;20018;-56
2022/04/30 01:47:34;;;;;;;6.47;4.07;;;14.00;68.40;;;;;;4993587;28;20502;-56
2022/04/30 01:50:00;;;;;;;6.90;4.40;;;14.00;68.60;;;;;;4993763;28;20108;-58
2022/04/30 01:52:25;;;;;;;5.75;4.10;;;14.00;68.60;;;;;;4993408;28;20058;-61
2022/04/30 01:54:51;;;;;;;5.57;4.00;;;14.00;68.70;;;;;;4993566;28;20058;-62
2022/04/30 01:57:23;;;;;;;7.13;4.03;;;14.00;68.70;;;;;;4993631;28;20535;-56
2022/04/30 01:59:51;;;;;;;9.48;4.60;;;14.00;68.80;;;;;;4993771;28;20022;-63
2022/04/30 02:02:18;;;;;;;7.25;4.35;;;13.90;68.80;;;;;;4993479;28;20014;-61
2022/04/30 02:04:43;;;;;;;6.82;4.32;;;13.90;68.80;;;;;;4992121;28;20375;-55
2022/04/30 02:07:10;;;;;;;8.82;4.25;;;13.90;68.90;;;;;;4993321;28;20023;-63
2022/04/30 02:09:36;;;;;;;6.22;4.65;;;13.90;69.00;;;;;;4993641;28;20034;-61
2022/04/30 02:12:02;;;;;;;6.07;3.90;;;13.90;69.00;;;;;;4993577;28;20426;-63
2022/04/30 02:14:30;;;;;;;5.72;3.80;;;13.90;69.00;;;;;;4993403;28;20045;-62
2022/04/30 02:16:57;;;;;;;5.38;4.07;;;13.80;69.00;;;;;;4993348;28;20026;-63
2022/04/30 02:19:26;;;;;;;6.15;4.22;;;13.80;69.10;;;;;;4993480;28;20061;-55
2022/04/30 02:21:52;;;;;;;4.57;3.88;;;13.80;69.30;;;;;;4993099;28;20065;-62
2022/04/30 02:24:18;;;;;;;5.80;4.00;;;13.80;69.20;;;;;;4993240;28;20031;-61
2022/04/30 02:26:43;;;;;;;5.97;4.18;;;13.70;69.10;;;;;;4993190;28;20077;-62
2022/04/30 02:29:10;;;;;;;5.68;4.05;;;13.70;69.10;;;;;;4993352;28;20034;-63
2022/04/30 02:31:35;;;;;;;7.43;4.53;;;13.70;69.30;;;;;;4993181;28;20019;-56
2022/04/30 02:34:01;;;;;;;7.13;4.30;;;13.70;69.40;;;;;;4993172;28;20041;-62
2022/04/30 02:36:27;;;;;;;6.80;4.28;;;13.70;69.50;;;;;;4993119;28;20114;-62
2022/04/30 02:39:00;;;;;;;7.70;3.83;;;13.60;69.30;;;;;;4993376;28;20052;-60
2022/04/30 02:41:27;;;;;;;6.70;4.57;;;13.60;69.50;;;;;;4993432;28;20025;-61
2022/04/30 02:43:54;;;;;;;6.15;4.55;;;13.60;69.60;;;;;;4992843;28;20061;-63
2022/04/30 02:46:20;;;;;;;10.25;4.78;;;13.60;69.70;;;;;;4993509;28;20031;-62
2022/04/30 02:48:46;;;;;;;8.10;4.88;;;13.60;69.70;;;;;;4993238;28;20521;-61
2022/04/30 02:51:14;;;;;;;6.82;4.60;;;13.50;69.80;;;;;;4996652;28;20018;-63
2022/04/30 02:53:41;;;;;;;7.95;5.28;;;13.50;69.90;;;;;;4996720;28;20472;-61
2022/04/30 02:56:07;;;;;;;7.93;4.80;;;13.50;69.90;;;;;;4997009;28;20392;-60
2022/04/30 03:01:19;;;;;;;6.20;4.57;;;13.40;70.10;;;;;;4996949;28;20041;-59
2022/04/30 03:03:46;;;;;;;5.25;4.53;;;13.40;70.30;;;;;;4996939;28;20037;-55
2022/04/30 03:06:13;;;;;;;8.90;5.35;;;13.40;70.30;;;;;;5011627;28;20022;-62
2022/04/30 03:08:40;;;;;;;8.50;5.22;;;13.40;70.30;;;;;;5015626;28;20034;-63
2022/04/30 03:11:07;;;;;;;9.95;5.20;;;13.40;70.50;;;;;;5015421;28;20030;-62
2022/04/30 03:13:34;;;;;;;7.07;5.13;;;13.40;70.50;;;;;;5016154;28;20025;-60
2022/04/30 03:21:41;;;;;;;9.40;5.35;;;13.30;70.50;;;;;;5015538;28;20505;-62
2022/04/30 03:21:44;;;;;;;7.43;4.70;;;13.30;70.70;;;;;;5016003;28;20037;-58
2022/04/30 03:24:19;;;;;;;7.13;5.53;;;13.30;70.70;;;;;;5015884;28;20046;-54
2022/04/30 03:26:51;;;;;;;7.20;6.05;;;13.30;70.70;;;;;;5015564;28;20091;-62
2022/04/30 03:29:18;;;;;;;7.35;5.65;;;13.20;70.70;;;;;;5015890;28;20029;-62
2022/04/30 03:31:44;;;;;;;7.22;5.10;;;13.20;70.80;;;;;;5015617;28;20018;-53
2022/04/30 03:34:11;;;;;;;7.05;5.05;;;13.30;70.70;;;;;;5015322;28;20026;-61
2022/04/30 03:36:37;;;;;;;7.68;5.85;;;13.20;70.80;;;;;;5015536;28;20021;-54
2022/04/30 03:39:05;;;;;;;8.57;5.63;;;13.20;70.90;;;;;;5015479;28;20525;-63
2022/04/30 03:41:31;;;;;;;6.68;5.35;;;13.20;71.10;;;;;;5015451;28;20076;-62
2022/04/30 03:43:57;;;;;;;9.52;6.30;;;13.20;71.10;;;;;;5015441;28;20021;-61
2022/04/30 03:46:23;;;;;;;8.07;5.35;;;13.20;71.20;;;;;;5015348;28;20084;-62
2022/04/30 03:48:53;;;;;;;6.93;4.80;;;13.20;71.30;;;;;;5015027;28;20057;-62
2022/04/30 03:51:31;;;;;;;10.65;6.15;;;13.10;71.40;;;;;;5015173;28;20495;-62
2022/04/30 03:54:04;;;;;;;8.38;6.10;;;13.10;71.50;;;;;;5015161;28;20034;-61
2022/04/30 03:56:31;;;;;;;7.35;5.47;;;13.10;71.60;;;;;;5015517;28;20053;-62
2022/04/30 03:58:56;;;;;;;8.70;6.30;;;13.10;71.90;;;;;;5015213;28;20022;-55
2022/04/30 04:01:22;;;;;;;7.57;5.82;;;13.00;71.90;;;;;;5014267;28;20049;-59
2022/04/30 04:03:50;;;;;;;10.00;6.28;;;13.00;72.10;;;;;;5014743;28;20379;-63
2022/04/30 04:06:18;;;;;;;9.57;6.93;;;13.00;72.20;;;;;;5015196;28;20029;-63
2022/04/30 04:08:44;;;;;;;9.68;7.30;;;13.00;72.50;;;;;;5015026;28;20353;-61
2022/04/30 04:11:13;;;;;;;8.63;6.35;;;13.00;72.60;;;;;;5014961;28;20072;-62
2022/04/30 04:19:29;;;;;;;10.57;7.28;;;12.90;73.00;;;;;;5014946;28;20033;-59
2022/04/30 04:21:56;;;;;;;10.75;6.82;;;12.80;73.30;;;;;;5014715;28;20026;-59
2022/04/30 04:27:06;;;;;;;12.25;7.53;;;12.90;73.40;;;;;;5014518;28;20445;-61
2022/04/30 04:29:31;;;;;;;8.80;7.90;;;12.90;73.60;;;;;;5014993;28;20030;-59
2022/04/30 04:31:57;;;;;;;12.10;8.60;;;12.80;73.70;;;;;;5014279;28;20030;-55
2022/04/30 04:34:22;;;;;;;11.40;8.60;;;12.80;74.00;;;;;;5014402;28;20073;-60
2022/04/30 04:36:48;;;;;;;12.27;8.60;;;12.80;74.20;;;;;;5014306;28;20029;-58
2022/04/30 04:39:15;;;;;;;12.20;9.23;;;12.80;74.30;;;;;;5014565;28;20392;-58
2022/04/30 04:41:42;;;;;;;12.38;8.75;;;12.80;74.50;;;;;;5014510;28;20029;-61
2022/04/30 04:44:08;;;;;;;12.65;9.65;;;12.80;74.80;;;;;;5014335;28;20116;-59
2022/04/30 04:46:34;;;;;;;11.80;9.85;;;12.70;75.00;;;;;;5014135;28;20022;-57
2022/04/30 04:49:00;;;;;;;18.10;11.00;;;12.70;75.20;;;;;;5014214;28;20390;-56
2022/04/30 04:51:27;;;;;;;15.18;9.60;;;12.70;75.40;;;;;;5014156;28;20546;-61
2022/04/30 04:53:52;;;;;;;12.38;10.85;;;12.80;75.40;;;;;;5014346;28;20092;-59
2022/04/30 04:56:18;;;;;;;15.40;11.18;;;12.70;75.70;;;;;;5014003;28;20026;-58
2022/04/30 04:58:43;;;;;;;13.07;10.23;;;12.70;75.80;;;;;;5014316;28;20444;-62
2022/04/30 05:01:09;;;;;;;13.07;10.48;;;12.70;76.20;;;;;;5011002;28;20511;-58
2022/04/30 05:03:34;;;;;;;13.73;10.85;;;12.70;76.40;;;;;;5013953;28;20494;-56
2022/04/30 05:06:00;;;;;;;14.30;11.02;;;12.70;76.50;;;;;;5013089;28;20068;-58
2022/04/30 05:08:25;;;;;;;13.88;11.73;;;12.70;76.60;;;;;;5012857;28;20036;-63
2022/04/30 05:10:51;;;;;;;15.60;10.77;;;12.70;76.70;;;;;;5013950;28;20093;-62
2022/04/30 05:13:16;;;;;;;11.70;10.27;;;12.70;76.80;;;;;;5013413;28;20026;-57
2022/04/30 05:15:43;;;;;;;18.00;10.25;;;12.70;76.70;;;;;;5013545;28;20062;-58
2022/04/30 05:18:08;;;;;;;12.07;9.30;;;12.60;76.90;;;;;;5013700;28;20033;-55
2022/04/30 05:20:34;;;;;;;14.18;10.30;;;12.60;76.80;;;;;;5014179;28;20387;-63
2022/04/30 05:23:00;;;;;;;13.60;10.13;;;12.60;76.80;;;;;;5004369;28;20577;-58
2022/04/30 05:25:25;;;;;;;13.77;9.30;;;12.60;77.20;;;;;;4999598;28;20038;-56
2022/04/30 05:27:52;;;;;;;14.23;9.30;;;12.70;77.50;;;;;;5013340;28;20021;-58
2022/04/30 05:30:18;;;;;;;10.68;9.25;;;12.60;77.60;;;;;;5013222;28;20483;-55
2022/04/30 05:32:43;;;;;;;14.07;9.43;;;12.70;77.70;;;;;;5012218;28;20054;-57
2022/04/30 05:35:10;;;;;;;12.60;9.40;;;12.70;77.70;;;;;;5013013;28;20076;-61
2022/04/30 05:37:35;;;;;;;15.43;9.60;;;12.70;77.60;;;;;;5010321;28;20033;-62
2022/04/30 05:40:01;;;;;;;11.98;8.85;;;12.70;77.70;;;;;;5004615;28;20023;-55
2022/04/30 05:42:27;;;;;;;12.30;8.65;;;12.70;77.70;;;;;;5009330;28;20415;-63
2022/04/30 05:44:52;;;;;;;11.80;9.90;;;12.70;77.80;;;;;;5008353;28;20045;-63
2022/04/30 05:47:19;;;;;;;11.70;8.35;;;12.70;78.00;;;;;;5012872;28;20376;-62
2022/04/30 05:49:45;;;;;;;12.95;8.77;;;12.70;78.60;;;;;;5013804;28;20057;-63
2022/04/30 05:52:11;;;;;;;10.23;8.10;;;12.80;78.50;;;;;;5011998;28;20436;-62
2022/04/30 05:54:38;;;;;;;11.90;9.10;;;12.80;78.40;;;;;;4998422;28;20029;-63
2022/04/30 05:57:04;;;;;;;11.07;9.05;;;12.80;77.90;;;;;;5012777;28;20105;-59
2022/04/30 05:59:29;;;;;;;10.48;8.65;;;12.80;78.10;;;;;;5001756;28;20066;-54
2022/04/30 06:01:55;;;;;;;17.08;8.73;;;12.80;78.00;;;;;;5003641;28;20438;-60
2022/04/30 06:04:21;;;;;;;11.77;8.02;;;12.90;78.10;;;;;;5012535;28;20029;-55
2022/04/30 06:06:46;;;;;;;9.68;8.35;;;12.90;78.60;;;;;;5008419;28;20426;-56
2022/04/30 06:09:12;;;;;;;11.88;8.40;;;12.90;78.50;;;;;;5021516;28;20143;-61
2022/04/30 06:11:38;;;;;;;17.92;8.38;;;12.90;78.70;;;;;;5032846;28;20528;-55
2022/04/30 06:14:04;;;;;;;11.27;6.90;;;13.00;78.20;;;;;;5012730;28;20038;-58
2022/04/30 06:16:30;;;;;;;8.70;7.38;;;12.90;78.10;;;;;;5008686;28;20057;-55
2022/04/30 06:18:55;;;;;;;12.18;7.50;;;12.90;78.20;;;;;;5012727;28;20045;-58
2022/04/30 06:21:23;;;;;;;9.02;7.20;;;13.00;78.90;;;;;;5010119;28;20486;-63
2022/04/30 06:23:48;;;;;;;9.13;6.53;;;13.00;78.40;;;;;;5005782;28;20026;-60
2022/04/30 06:26:14;;;;;;;9.68;6.55;;;13.10;79.20;;;;;;5016346;28;20029;-62
2022/04/30 06:28:39;;;;;;;9.52;6.30;;;13.10;78.00;;;;;;5016031;28;20109;-57
2022/04/30 06:31:05;;;;;;;17.60;7.75;;;13.10;77.50;;;;;;5012790;28;20443;-63
2022/04/30 06:33:31;;;;;;;11.55;6.80;;;13.20;77.20;;;;;;5016192;28;20075;-59
2022/04/30 06:35:56;;;;;;;9.00;6.15;;;13.20;76.40;;;;;;5014386;28;20033;-59
2022/04/30 06:38:22;;;;;;;8.85;7.32;;;13.20;76.90;;;;;;5016266;28;20018;-58
2022/04/30 06:40:48;;;;;;;10.18;6.88;;;13.10;75.80;;;;;;5015619;28;20034;-60
2022/04/30 06:43:13;;;;;;;14.75;6.07;;;12.60;77.00;;;;;;5014351;28;20033;-58
2022/04/30 06:45:39;;;;;;;9.20;6.53;;;12.40;77.50;;;;;;5005373;28;20101;-57
2022/04/30 06:48:05;;;;;;;8.43;5.70;;;12.20;77.90;;;;;;5004991;28;20053;-59
2022/04/30 06:50:30;;;;;;;9.25;6.70;;;12.20;78.00;;;;;;5012269;28;20033;-57
2022/04/30 06:58:25;;;;;;;8.55;5.43;;;12.00;77.00;;;;;;5015137;28;20079;-61
2022/04/30 07:03:27;;;;;;;11.02;6.65;;;11.80;77.60;;;;;;5009865;28;20043;-61
2022/04/30 07:06:04;;;;;;;7.88;6.88;;;11.70;78.20;;;;;;5015408;28;20030;-61
2022/04/30 07:08:34;;;;;;;7.05;6.00;;;11.80;78.30;;;;;;5015207;28;20061;-62
2022/04/30 07:11:01;;;;;;;7.35;6.25;;;11.90;78.40;;;;;;5015323;28;20164;-61
2022/04/30 07:13:27;;;;;;;8.75;5.93;;;12.10;78.20;;;;;;5011840;28;20022;-56
2022/04/30 07:15:52;;;;;;;8.68;5.40;;;12.20;77.40;;;;;;5015469;28;20029;-60
2022/04/30 07:18:18;;;;;;;10.82;4.97;;;12.40;77.30;;;;;;5015630;28;20431;-62
2022/04/30 07:20:43;;;;;;;5.47;4.20;;;12.60;75.50;;;;;;5014860;28;20062;-59
2022/04/30 07:23:09;;;;;;;5.10;3.80;;;12.70;75.00;;;;;;5013397;28;20467;-61
2022/04/30 07:25:34;;;;;;;4.93;3.05;;;12.80;74.20;;;;;;5008501;28;20055;-58
2022/04/30 07:28:00;;;;;;;7.30;3.67;;;12.80;73.90;;;;;;5014316;28;20036;-57
2022/04/30 07:30:26;;;;;;;7.28;3.72;;;12.90;72.90;;;;;;5013052;28;20018;-62
2022/04/30 07:32:51;;;;;;;4.88;4.07;;;12.90;72.20;;;;;;5010974;28;20022;-57
2022/04/30 07:35:17;;;;;;;6.28;3.63;;;12.80;73.00;;;;;;5011740;28;20518;-54
2022/04/30 07:37:42;;;;;;;29.48;5.95;;;13.00;74.80;;;;;;5010059;28;20494;-59
2022/04/30 07:40:08;;;;;;;5.50;3.55;;;12.70;78.90;;;;;;5015260;28;20037;-62
2022/04/30 07:42:34;;;;;;;5.18;3.78;;;13.00;75.60;;;;;;5010540;28;20029;-61
2022/04/30 07:44:59;;;;;;;6.93;4.00;;;13.30;74.70;;;;;;5015370;28;20037;-61
2022/04/30 07:47:26;;;;;;;6.55;3.95;;;13.50;73.80;;;;;;5015557;28;20033;-61
2022/04/30 07:49:51;;;;;;;11.40;4.47;;;13.60;74.10;;;;;;5013423;28;20112;-62
2022/04/30 07:52:17;;;;;;;5.13;4.47;;;13.80;73.90;;;;;;5024008;28;20105;-61
2022/04/30 07:54:43;;;;;;;7.78;4.68;;;13.90;73.00;;;;;;5016826;28;20030;-63
2022/04/30 07:57:09;;;;;;;7.07;4.55;;;13.90;73.00;;;;;;5015892;28;20030;-63
2022/04/30 07:59:34;;;;;;;7.20;4.88;;;14.00;72.60;;;;;;5023677;28;20022;-61
2022/04/30 08:02:00;;;;;;;11.70;5.43;;;14.00;73.00;;;;;;5014024;28;20025;-62
2022/04/30 08:04:25;;;;;;;8.18;6.10;;;14.00;72.50;;;;;;5020259;28;20034;-62
2022/04/30 08:06:51;;;;;;;7.38;6.07;;;14.00;72.20;;;;;;5019424;28;20022;-62
2022/04/30 08:09:17;;;;;;;8.38;5.53;;;14.00;73.20;;;;;;5014528;28;20040;-62
2022/04/30 08:11:42;;;;;;;7.43;5.32;;;14.10;72.80;;;;;;5017393;28;20049;-60
2022/04/30 08:14:08;;;;;;;6.22;4.78;;;14.10;72.60;;;;;;5015472;28;20121;-62
2022/04/30 08:16:34;;;;;;;7.70;4.93;;;14.20;72.70;;;;;;5013398;28;20157;-62
2022/04/30 08:18:59;;;;;;;10.07;5.00;;;14.20;71.70;;;;;;5007228;28;20037;-55
2022/04/30 08:21:25;;;;;;;9.07;4.90;;;14.20;71.90;;;;;;5008948;28;20491;-58
2022/04/30 08:23:51;;;;;;;7.22;4.35;;;14.20;71.50;;;;;;5009143;28;20029;-58
2022/04/30 08:26:17;;;;;;;4.95;4.05;;;14.20;70.20;;;;;;5000549;28;20111;-57
2022/04/30 08:28:43;;;;;;;5.57;4.28;;;14.20;71.10;;;;;;4978607;28;20463;-54
2022/04/30 08:31:08;;;;;;;6.10;4.72;;;14.20;71.30;;;;;;4986628;28;20034;-60
2022/04/30 08:33:34;;;;;;;8.15;5.25;;;14.30;71.80;;;;;;4985156;28;20026;-55
2022/04/30 08:36:00;;;;;;;7.82;4.75;;;14.30;70.50;;;;;;4990330;28;20094;-54
2022/04/30 08:38:25;;;;;;;6.55;5.35;;;14.30;71.00;;;;;;5009812;28;20033;-58
2022/04/30 08:40:51;;;;;;;6.78;5.28;;;14.30;71.00;;;;;;5008967;28;20030;-54
2022/04/30 08:43:19;;;;;;;7.38;6.78;;;14.30;71.10;;;;;;5009092;28;20025;-56
2022/04/30 08:45:45;;;;;;;9.20;7.47;;;14.30;70.20;;;;;;5011139;28;20474;-57
2022/04/30 08:48:13;;;;;;;7.57;6.88;;;14.30;70.30;;;;;;5010284;28;20046;-61
2022/04/30 08:50:40;;;;;;;9.50;7.22;;;14.30;71.00;;;;;;5013010;28;20067;-56
2022/04/30 08:53:06;;;;;;;7.82;7.03;;;14.40;71.20;;;;;;5011242;28;20038;-57
2022/04/30 08:55:33;;;;;;;8.60;6.93;;;14.30;71.40;;;;;;5010728;28;20034;-57
2022/04/30 08:57:59;;;;;;;9.30;5.82;;;14.40;70.90;;;;;;5013686;28;20463;-59
2022/04/30 09:00:26;;;;;;;6.97;5.85;;;14.40;71.90;;;;;;5002589;28;20030;-56
2022/04/30 09:02:54;;;;;;;7.57;5.90;;;14.40;70.90;;;;;;5006525;28;20022;-60
2022/04/30 09:05:20;;;;;;;53.88;8.77;;;14.50;70.40;;;;;;5012004;28;20026;-54
2022/04/30 09:07:54;;;;;;;8.52;4.78;;;14.50;71.40;;;;;;5013111;28;20113;-58
2022/04/30 09:10:31;;;;;;;12.80;6.07;;;14.50;73.00;;;;;;5004494;28;20038;-61
2022/04/30 09:13:14;;;;;;;10.40;6.22;;;14.60;72.30;;;;;;5002966;28;20026;-59
2022/04/30 09:15:44;;;;;;;9.23;5.43;;;14.70;72.20;;;;;;5005969;28;20460;-63
2022/04/30 09:18:10;;;;;;;7.53;5.60;;;14.70;72.00;;;;;;5008123;28;20033;-56
2022/04/30 09:20:43;;;;;;;6.40;5.63;;;14.70;71.50;;;;;;5006048;28;20030;-60
2022/04/30 09:23:22;;;;;;;5.80;4.85;;;14.80;71.50;;;;;;5014378;28;20037;-60
2022/04/30 09:25:55;;;;;;;6.95;4.82;;;14.80;71.00;;;;;;5001443;28;20101;-58
2022/04/30 09:28:28;;;;;;;7.53;4.65;;;14.90;70.10;;;;;;5009426;28;20022;-57
2022/04/30 09:31:11;;;;;;;11.23;5.30;;;14.90;69.90;;;;;;5005129;28;20080;-56
2022/04/30 09:33:49;;;;;;;7.20;4.75;;;14.90;70.30;;;;;;5006947;28;20029;-58
2022/04/30 09:39:09;;;;;;;5.22;4.45;;;15.00;70.30;;;;;;5003311;28;20041;-59
2022/04/30 09:41:35;;;;;;;6.25;3.50;;;15.10;69.80;;;;;;5008291;28;20458;-59
2022/04/30 09:44:05;;;;;;;6.03;4.25;;;15.20;68.20;;;;;;5007711;28;20033;-58
2022/04/30 09:46:33;;;;;;;5.78;4.25;;;15.20;68.40;;;;;;5017689;28;20017;-58
2022/04/30 09:54:29;;;;;;;7.13;4.70;;;15.40;68.70;;;;;;5012941;28;20752;-59
2022/04/30 09:56:58;;;;;;;8.40;5.32;;;15.40;67.90;;;;;;5000706;28;20034;-59
2022/04/30 09:59:25;;;;;;;11.35;5.35;;;15.50;68.60;;;;;;5007484;28;20510;-59
2022/04/30 10:01:53;;;;;;;6.25;4.10;;;15.50;67.80;;;;;;5003439;28;20018;-59
2022/04/30 10:04:19;;;;;;;8.10;4.70;;;15.50;67.70;;;;;;5014192;28;20025;-59
2022/04/30 10:06:50;;;;;;;8.38;4.53;;;15.50;68.80;;;;;;5013966;28;20049;-59
2022/04/30 10:09:19;;;;;;;10.82;4.50;;;15.60;68.50;;;;;;5009066;28;20033;-58
2022/04/30 10:12:01;;;;;;;6.22;4.88;;;15.70;68.60;;;;;;5005624;28;20476;-58
2022/04/30 10:15:04;;;;;;;12.50;4.82;;;15.70;67.90;;;;;;5008667;28;20044;-59
2022/04/30 10:17:40;;;;;;;6.40;4.30;;;15.70;68.30;;;;;;5008197;28;21452;-60
2022/04/30 10:20:14;;;;;;;12.05;4.25;;;15.80;67.40;;;;;;5008052;28;20080;-59
2022/04/30 10:22:50;;;;;;;5.72;4.45;;;15.70;68.70;;;;;;5006911;28;20021;-59
2022/04/30 10:25:16;;;;;;;6.28;3.72;;;15.80;67.90;;;;;;5006091;28;20022;-60
2022/04/30 10:27:44;;;;;;;7.13;4.20;;;15.70;67.50;;;;;;5003302;28;20137;-60
2022/04/30 10:30:31;;;;;;;6.20;5.22;;;15.80;67.70;;;;;;5005431;28;20030;-59
2022/04/30 10:33:03;;;;;;;7.38;6.00;;;15.80;66.00;;;;;;5008555;28;20375;-59
2022/04/30 10:35:29;;;;;;;7.22;5.30;;;15.70;65.90;;;;;;5009370;28;20564;-61
2022/04/30 10:38:31;;;;;;;6.70;5.53;;;15.70;66.00;;;;;;5011150;28;20059;-60
2022/04/30 10:40:58;;;;;;;7.25;5.10;;;15.70;66.30;;;;;;4997086;28;20049;-61
2022/04/30 10:43:26;;;;;;;7.03;5.15;;;15.70;65.50;;;;;;5012663;28;20034;-60
2022/04/30 10:45:53;;;;;;;8.85;5.47;;;15.70;65.30;;;;;;5012294;28;20018;-60
2022/04/30 10:48:20;;;;;;;7.85;5.10;;;15.70;65.60;;;;;;5012089;28;20045;-60
2022/04/30 10:50:47;;;;;;;10.60;5.63;;;15.60;65.50;;;;;;5009894;28;20050;-60
2022/04/30 10:53:14;;;;;;;8.82;5.95;;;15.60;65.60;;;;;;5008754;28;20030;-60
2022/04/30 10:55:40;;;;;;;8.10;4.47;;;15.60;67.20;;;;;;5004254;28;20030;-62
2022/04/30 10:58:05;;;;;;;9.90;5.32;;;15.70;69.20;;;;;;4996944;28;20046;-57
2022/04/30 11:00:31;;;;;;;10.38;4.82;;;15.60;67.60;;;;;;5017797;28;20332;-61
2022/04/30 11:03:10;;;;;;;7.70;5.07;;;15.70;67.60;;;;;;5009956;28;20113;-68
2022/04/30 11:05:35;;;;;;;11.57;4.10;;;15.70;67.80;;;;;;5010864;28;20036;-68
2022/04/30 11:08:05;;;;;;;7.95;4.50;;;15.70;72.60;;;;;;5010923;28;20387;-69
2022/04/30 11:10:32;;;;;;;6.93;4.32;;;15.80;72.00;;;;;;5011147;28;20018;-69
2022/04/30 11:13:05;;;;;;;8.48;4.18;;;15.80;70.10;;;;;;5011421;28;20505;-67
2022/04/30 11:15:31;;;;;;;7.30;4.82;;;15.90;67.20;;;;;;4996037;28;20039;-68
2022/04/30 11:17:58;;;;;;;8.68;5.00;;;15.90;66.90;;;;;;5004029;28;20023;-68
2022/04/30 11:20:25;;;;;;;6.75;5.00;;;15.90;68.00;;;;;;5015751;28;20061;-68
2022/04/30 11:22:56;;;;;;;7.55;4.72;;;15.90;66.80;;;;;;5014563;28;20022;-69
2022/04/30 11:25:22;;;;;;;9.57;5.10;;;15.90;66.10;;;;;;5008755;28;20021;-66
2022/04/30 11:27:48;;;;;;;6.97;4.70;;;15.90;66.50;;;;;;5011421;28;20030;-59
2022/04/30 11:30:14;;;;;;;5.68;4.68;;;15.90;65.80;;;;;;5013179;28;20026;-58
2022/04/30 11:32:39;;;;;;;8.23;5.40;;;15.80;66.10;;;;;;4991089;28;21407;-60
2022/04/30 11:35:07;;;;;;;9.05;4.68;;;15.80;66.10;;;;;;4992378;28;20495;-56
2022/04/30 11:37:39;;;;;;;7.05;4.82;;;15.80;66.10;;;;;;5012782;28;20025;-53
2022/04/30 11:40:07;;;;;;;10.25;4.97;;;15.80;65.70;;;;;;5010208;28;20457;-59
2022/04/30 11:42:33;;;;;;;8.07;4.57;;;15.80;66.20;;;;;;5014544;28;20024;-59
2022/04/30 11:44:58;;;;;;;4.82;4.13;;;15.90;66.50;;;;;;5017934;28;20034;-58
2022/04/30 11:47:24;;;;;;;6.57;4.28;;;15.90;66.80;;;;;;5010287;28;20083;-59
2022/04/30 11:50:05;;;;;;;7.45;3.60;;;15.90;65.80;;;;;;5017661;28;20028;-59
2022/04/30 11:52:32;;;;;;;7.13;4.25;;;15.90;65.20;;;;;;5009372;28;20026;-58
2022/04/30 11:55:01;;;;;;;6.28;3.75;;;15.90;65.20;;;;;;5010170;28;20088;-58
2022/04/30 11:57:26;;;;;;;5.72;3.30;;;15.90;65.70;;;;;;5011777;28;20034;-59
2022/04/30 11:59:55;;;;;;;4.95;3.10;;;16.00;65.70;;;;;;5022354;28;20048;-57
2022/04/30 12:02:21;;;;;;;7.20;3.97;;;16.00;66.40;;;;;;5022864;28;20048;-59
2022/04/30 12:04:48;;;;;;;5.97;3.53;;;16.10;66.80;;;;;;5026144;28;20037;-56
2022/04/30 12:07:15;;;;;;;10.27;3.83;;;16.10;65.40;;;;;;5015216;28;20076;-63
2022/04/30 12:09:46;;;;;;;7.20;4.07;;;16.10;64.40;;;;;;5027604;28;20038;-62
2022/04/30 12:12:17;;;;;;;6.38;3.50;;;16.10;64.00;;;;;;5010576;28;20140;-59
2022/04/30 12:14:43;;;;;;;10.70;4.72;;;16.20;64.80;;;;;;5017631;28;20100;-59
2022/04/30 12:17:09;;;;;;;4.93;3.22;;;16.20;64.30;;;;;;5005564;28;20042;-63
2022/04/30 12:25:09;;;;;;;7.10;3.60;;;16.30;65.20;;;;;;5006125;28;20076;-62
2022/04/30 12:27:36;;;;;;;5.95;2.97;;;16.30;64.50;;;;;;5007355;28;20433;-57
2022/04/30 12:30:21;;;;;;;5.60;3.13;;;16.30;63.40;;;;;;5007673;28;20026;-59
2022/04/30 12:32:52;;;;;;;7.28;3.42;;;16.30;64.80;;;;;;5007130;28;20021;-62
2022/04/30 12:35:26;;;;;;;5.18;2.85;;;16.30;62.50;;;;;;5013953;28;20049;-57
2022/04/30 12:38:08;;;;;;;5.93;2.95;;;16.20;62.00;;;;;;5012119;28;20046;-59
2022/04/30 12:40:39;;;;;;;11.18;3.78;;;16.20;64.50;;;;;;5012808;28;20034;-59
2022/04/30 12:43:05;;;;;;;7.35;2.88;;;16.20;63.20;;;;;;4998048;28;20022;-58
2022/04/30 12:45:33;;;;;;;4.13;3.28;;;16.20;65.40;;;;;;5026059;28;20064;-58
2022/04/30 12:48:00;;;;;;;6.53;3.20;;;16.30;65.30;;;;;;4999133;28;20055;-63
2022/04/30 12:50:27;;;;;;;8.35;3.65;;;16.30;63.60;;;;;;5015595;28;20030;-59
2022/04/30 12:52:53;;;;;;;6.15;3.40;;;16.40;64.90;;;;;;5003989;28;20112;-62
2022/04/30 12:55:20;;;;;;;8.25;3.72;;;16.40;64.60;;;;;;5010389;28;20060;-61
2022/04/30 12:57:46;;;;;;;6.90;3.42;;;16.40;64.00;;;;;;5012906;28;20026;-62
2022/04/30 13:00:13;;;;;;;5.93;3.50;;;16.40;64.10;;;;;;5007161;28;20116;-61
2022/04/30 13:02:39;;;;;;;5.20;3.00;;;16.40;64.10;;;;;;5010204;28;20014;-58
2022/04/30 13:05:09;;;;;;;10.57;3.47;;;16.30;65.00;;;;;;5006088;28;20508;-64
2022/04/30 13:07:37;;;;;;;5.95;3.15;;;16.40;64.40;;;;;;5014595;28;20026;-56
2022/04/30 13:15:35;;;;;;;6.07;2.92;;;16.40;63.20;;;;;;5012212;28;20743;-61
2022/04/30 13:18:02;;;;;;;11.75;2.83;;;16.40;65.20;;;;;;5023773;28;20034;-59
2022/04/30 13:20:29;;;;;;;4.78;2.90;;;16.40;66.00;;;;;;5017399;28;20021;-57
2022/04/30 13:22:56;;;;;;;4.88;2.75;;;16.40;64.10;;;;;;5019660;28;20036;-60
2022/04/30 13:25:29;;;;;;;5.30;3.25;;;16.50;64.20;;;;;;5005590;28;20045;-60
2022/04/30 13:27:56;;;;;;;3.55;2.17;;;16.50;63.80;;;;;;5004580;28;20037;-59
2022/04/30 13:30:26;;;;;;;6.43;3.25;;;16.50;65.60;;;;;;5011163;28;20036;-56
2022/04/30 13:32:51;;;;;;;7.55;2.55;;;16.50;65.80;;;;;;5009175;28;20030;-59